Time;durP1;ratioP1;P1;durP2;ratioP2;P2;SDS_P1;SDS_P2;PMS_P1;PMS_P2;Temp;Humidity;BMP_temperature;BMP_pressure;BME280_temperature;BME280_humidity;BME280_pressure;Samples;Min_cycle;Max_cycle;Signal;HPM_P1;HPM_P2
2022/03/09 00:01:34;;;;;;;4.80;2.70;;;4.00;99.90;;;;;;5074195;28;20508;-61
2022/03/09 00:04:00;;;;;;;5.28;3.08;;;4.00;99.90;;;;;;5074403;28;20048;-61
2022/03/09 00:06:26;;;;;;;4.78;3.13;;;3.90;99.90;;;;;;5074188;28;20459;-61
2022/03/09 00:08:52;;;;;;;9.32;4.03;;;3.90;99.90;;;;;;5074138;28;20089;-60
2022/03/09 00:11:18;;;;;;;5.03;2.90;;;3.90;99.90;;;;;;5084093;28;20044;-61
2022/03/09 00:13:44;;;;;;;4.32;2.75;;;3.90;99.90;;;;;;5094850;28;20032;-60
2022/03/09 00:16:10;;;;;;;4.10;2.97;;;3.80;99.90;;;;;;5094576;28;20383;-61
2022/03/09 00:18:36;;;;;;;4.30;2.53;;;3.80;99.90;;;;;;5094001;28;20035;-61
2022/03/09 00:21:02;;;;;;;6.45;2.97;;;3.80;99.90;;;;;;5094172;28;20040;-60
2022/03/09 00:23:28;;;;;;;4.28;3.13;;;3.70;99.90;;;;;;5094243;28;20043;-61
2022/03/09 00:25:54;;;;;;;6.15;2.85;;;3.70;99.90;;;;;;5093889;28;20389;-61
2022/03/09 00:28:19;;;;;;;9.13;3.10;;;3.70;99.90;;;;;;5093725;28;20056;-60
2022/03/09 00:30:45;;;;;;;5.13;3.20;;;3.60;99.90;;;;;;5094228;28;20040;-60
2022/03/09 00:33:11;;;;;;;8.45;3.03;;;3.60;99.90;;;;;;5093953;28;20561;-60
2022/03/09 00:35:39;;;;;;;7.75;3.45;;;3.60;99.90;;;;;;5094043;28;20110;-61
2022/03/09 00:38:06;;;;;;;3.92;3.00;;;3.60;99.90;;;;;;5093948;28;20475;-60
2022/03/09 00:40:32;;;;;;;4.78;3.10;;;3.50;99.90;;;;;;5093642;28;20044;-61
2022/03/09 00:42:57;;;;;;;6.88;2.92;;;3.50;99.90;;;;;;5094086;28;20050;-61
2022/03/09 00:45:23;;;;;;;5.32;3.35;;;3.50;99.90;;;;;;5093773;28;20393;-61
2022/03/09 00:47:49;;;;;;;5.07;3.17;;;3.50;99.90;;;;;;5093796;28;20413;-61
2022/03/09 00:50:14;;;;;;;6.22;3.20;;;3.40;99.90;;;;;;5092359;28;20035;-61
2022/03/09 00:52:40;;;;;;;4.47;3.33;;;3.40;99.90;;;;;;5093465;28;20036;-61
2022/03/09 00:55:07;;;;;;;4.40;2.92;;;3.40;99.90;;;;;;5093342;28;20119;-60
2022/03/09 00:57:33;;;;;;;4.93;3.20;;;3.40;99.90;;;;;;5093667;28;20085;-61
2022/03/09 00:59:59;;;;;;;11.02;3.42;;;3.40;99.90;;;;;;5093399;28;20040;-61
2022/03/09 01:02:24;;;;;;;6.50;3.60;;;3.40;99.90;;;;;;5093583;28;20474;-61
2022/03/09 01:04:50;;;;;;;4.55;3.60;;;3.40;99.90;;;;;;5093579;28;20040;-61
2022/03/09 01:07:16;;;;;;;4.63;3.33;;;3.40;99.90;;;;;;5093254;28;20042;-61
2022/03/09 01:09:42;;;;;;;5.80;3.35;;;3.30;99.90;;;;;;5093207;28;20394;-61
2022/03/09 01:12:08;;;;;;;13.07;3.90;;;3.30;99.90;;;;;;5093339;28;20036;-61
2022/03/09 01:14:33;;;;;;;5.97;3.90;;;3.30;99.90;;;;;;5093210;28;20028;-61
2022/03/09 01:16:59;;;;;;;4.93;3.33;;;3.20;99.90;;;;;;5091878;28;20534;-61
2022/03/09 01:19:24;;;;;;;5.35;3.92;;;3.20;99.90;;;;;;5092915;28;20088;-61
2022/03/09 01:21:50;;;;;;;6.82;3.33;;;3.10;99.90;;;;;;5093009;28;20040;-61
2022/03/09 01:24:16;;;;;;;7.20;3.90;;;3.20;99.90;;;;;;5092921;28;20036;-61
2022/03/09 01:26:42;;;;;;;5.97;3.35;;;3.10;99.90;;;;;;5093066;28;20082;-61
2022/03/09 01:29:09;;;;;;;6.10;3.83;;;3.10;99.90;;;;;;5092739;28;20102;-61
2022/03/09 01:31:35;;;;;;;6.57;3.70;;;3.10;99.90;;;;;;5092835;28;20359;-61
2022/03/09 01:34:01;;;;;;;5.72;3.50;;;3.00;99.90;;;;;;5092750;28;20028;-61
2022/03/09 01:36:26;;;;;;;5.82;4.00;;;3.00;99.90;;;;;;5091726;28;20036;-61
2022/03/09 01:38:52;;;;;;;6.47;4.38;;;3.00;99.90;;;;;;5092476;28;20169;-61
2022/03/09 01:41:18;;;;;;;5.57;3.95;;;3.00;99.90;;;;;;5092809;28;20540;-61
2022/03/09 01:43:43;;;;;;;5.82;3.90;;;2.90;99.90;;;;;;5092763;28;20042;-61
2022/03/09 01:46:09;;;;;;;6.30;3.85;;;2.90;99.90;;;;;;5092653;28;20121;-61
2022/03/09 01:48:35;;;;;;;6.88;4.05;;;3.00;99.90;;;;;;5092802;28;20122;-61
2022/03/09 01:51:00;;;;;;;5.15;3.95;;;2.90;99.90;;;;;;5092455;28;20553;-61
2022/03/09 01:53:26;;;;;;;5.97;4.03;;;2.90;99.90;;;;;;5092353;28;20113;-61
2022/03/09 01:55:52;;;;;;;5.68;3.80;;;2.80;99.90;;;;;;5092671;28;20040;-61
2022/03/09 01:58:18;;;;;;;5.32;3.85;;;2.70;99.90;;;;;;5091073;28;20043;-60
2022/03/09 02:00:43;;;;;;;6.43;4.35;;;2.70;99.90;;;;;;5092105;28;20038;-61
2022/03/09 02:03:09;;;;;;;6.28;4.78;;;2.70;99.90;;;;;;5092161;28;20043;-61
2022/03/09 02:05:35;;;;;;;7.97;4.25;;;2.60;99.90;;;;;;5092224;28;20040;-61
2022/03/09 02:10:46;;;;;;;5.57;3.90;;;2.60;99.90;;;;;;5092249;28;20375;-61
2022/03/09 02:13:11;;;;;;;8.73;4.43;;;2.60;99.90;;;;;;5092401;28;20032;-61
2022/03/09 02:15:37;;;;;;;6.07;4.05;;;2.60;99.90;;;;;;5092144;28;20371;-61
2022/03/09 02:18:04;;;;;;;11.13;4.63;;;2.60;99.90;;;;;;5092030;28;20490;-61
2022/03/09 02:20:29;;;;;;;7.70;4.05;;;2.70;99.90;;;;;;5092030;28;20039;-62
2022/03/09 02:22:56;;;;;;;7.47;4.68;;;2.70;99.90;;;;;;5092131;28;20048;-61
2022/03/09 02:25:22;;;;;;;7.80;4.13;;;2.60;99.90;;;;;;5092057;28;20398;-61
2022/03/09 02:27:48;;;;;;;7.55;4.78;;;2.60;99.90;;;;;;5091006;28;20039;-61
2022/03/09 02:30:17;;;;;;;9.32;4.45;;;2.70;99.90;;;;;;5092294;28;20047;-61
2022/03/09 02:32:49;;;;;;;7.82;4.55;;;2.70;99.90;;;;;;5091886;28;20039;-60
2022/03/09 02:35:16;;;;;;;8.20;4.03;;;2.70;99.90;;;;;;5091909;28;20047;-61
2022/03/09 02:37:43;;;;;;;6.75;4.40;;;2.70;99.90;;;;;;5091943;28;20040;-60
2022/03/09 02:40:11;;;;;;;7.07;4.50;;;2.70;99.90;;;;;;5092055;28;20071;-61
2022/03/09 02:42:38;;;;;;;7.15;4.78;;;2.60;99.90;;;;;;5091988;28;20047;-61
2022/03/09 02:45:05;;;;;;;8.70;4.78;;;2.60;99.90;;;;;;5091746;28;20390;-61
2022/03/09 02:47:31;;;;;;;8.75;4.38;;;2.60;99.90;;;;;;5091816;28;20040;-61
2022/03/09 02:49:57;;;;;;;7.57;4.50;;;2.60;99.90;;;;;;5091812;28;20454;-61
2022/03/09 02:52:22;;;;;;;6.82;4.68;;;2.60;99.90;;;;;;5090462;28;20169;-61
2022/03/09 02:54:48;;;;;;;6.88;4.50;;;2.50;99.90;;;;;;5091907;28;20036;-61
2022/03/09 02:57:14;;;;;;;9.98;4.50;;;2.50;99.90;;;;;;5091928;28;20131;-61
2022/03/09 02:59:40;;;;;;;6.53;4.72;;;2.50;99.90;;;;;;5091680;28;20040;-61
2022/03/09 03:02:05;;;;;;;10.70;4.82;;;2.50;99.90;;;;;;5090489;28;20055;-61
2022/03/09 03:04:31;;;;;;;7.50;4.85;;;2.50;99.90;;;;;;5091602;28;20802;-61
2022/03/09 03:06:57;;;;;;;11.68;5.32;;;2.40;99.90;;;;;;5091558;28;20481;-61
2022/03/09 03:09:23;;;;;;;7.72;4.47;;;2.40;99.90;;;;;;5091675;28;20371;-61
2022/03/09 03:11:48;;;;;;;7.65;4.88;;;2.40;99.90;;;;;;5091603;28;20082;-62
2022/03/09 03:14:14;;;;;;;8.57;4.93;;;2.40;99.90;;;;;;5093772;28;20496;-61
2022/03/09 03:16:40;;;;;;;7.72;5.03;;;2.30;99.90;;;;;;5095436;28;20044;-61
2022/03/09 03:19:05;;;;;;;8.27;4.57;;;2.20;99.90;;;;;;5111523;28;20173;-61
2022/03/09 03:21:31;;;;;;;6.75;4.55;;;2.20;99.90;;;;;;5095198;28;20125;-61
2022/03/09 03:23:57;;;;;;;13.30;4.93;;;2.20;99.90;;;;;;5095387;28;20110;-62
2022/03/09 03:26:24;;;;;;;7.85;5.20;;;2.20;99.90;;;;;;5095182;28;20434;-61
2022/03/09 03:28:51;;;;;;;7.28;4.82;;;2.10;99.90;;;;;;5095071;28;20052;-61
2022/03/09 03:31:19;;;;;;;9.98;5.05;;;2.10;99.90;;;;;;5095172;28;20036;-61
2022/03/09 03:33:45;;;;;;;9.85;5.38;;;2.10;99.90;;;;;;5095267;28;20040;-61
2022/03/09 03:36:10;;;;;;;6.88;4.68;;;2.10;99.90;;;;;;5095019;28;20043;-62
2022/03/09 03:38:36;;;;;;;7.85;4.95;;;2.10;99.90;;;;;;5095209;28;20127;-61
2022/03/09 03:41:02;;;;;;;7.25;5.45;;;2.10;99.90;;;;;;5094937;28;20036;-61
2022/03/09 03:43:27;;;;;;;8.43;5.15;;;2.10;99.90;;;;;;5110403;28;20043;-61
2022/03/09 03:45:53;;;;;;;7.60;4.68;;;2.10;99.90;;;;;;5094673;28;20040;-61
2022/03/09 03:48:18;;;;;;;8.30;5.80;;;2.10;99.90;;;;;;5093807;28;20035;-61
2022/03/09 03:50:44;;;;;;;11.88;5.60;;;2.10;99.90;;;;;;5095214;28;20036;-61
2022/03/09 03:53:10;;;;;;;10.35;5.68;;;2.10;99.90;;;;;;5094884;28;20032;-61
2022/03/09 03:55:36;;;;;;;8.65;5.43;;;2.10;99.90;;;;;;5094718;28;20042;-61
2022/03/09 03:58:03;;;;;;;7.85;5.10;;;2.10;99.90;;;;;;5094650;28;20489;-61
2022/03/09 04:00:28;;;;;;;7.55;5.25;;;2.10;99.90;;;;;;5094533;28;20097;-61
2022/03/09 04:02:54;;;;;;;9.60;5.28;;;2.10;99.90;;;;;;5094663;28;20039;-61
2022/03/09 04:05:20;;;;;;;8.90;5.50;;;2.10;99.90;;;;;;5094678;28;20085;-61
2022/03/09 04:07:46;;;;;;;9.15;5.47;;;2.10;99.90;;;;;;5094453;28;20043;-61
2022/03/09 04:10:12;;;;;;;7.68;5.25;;;2.00;99.90;;;;;;5094560;28;20115;-61
2022/03/09 04:12:37;;;;;;;10.55;5.82;;;2.10;99.90;;;;;;5094280;28;20165;-61
2022/03/09 04:15:04;;;;;;;9.93;5.63;;;2.00;99.90;;;;;;5094177;28;20051;-61
2022/03/09 04:17:38;;;;;;;10.10;5.72;;;2.00;99.90;;;;;;5094279;28;20044;-61
2022/03/09 04:20:04;;;;;;;9.63;5.47;;;2.00;99.90;;;;;;5094431;28;20098;-61
2022/03/09 04:22:29;;;;;;;8.15;5.32;;;2.00;99.90;;;;;;5094143;28;20085;-61
2022/03/09 04:24:55;;;;;;;9.65;6.32;;;1.90;99.90;;;;;;5093697;28;20040;-61
2022/03/09 04:27:21;;;;;;;9.77;5.90;;;1.90;99.90;;;;;;5093966;28;20122;-61
2022/03/09 04:29:46;;;;;;;10.57;5.60;;;1.90;99.90;;;;;;5093807;28;20053;-61
2022/03/09 04:32:12;;;;;;;10.95;5.65;;;1.90;99.90;;;;;;5093838;28;20551;-61
2022/03/09 04:34:37;;;;;;;9.60;6.03;;;1.90;99.90;;;;;;5092533;28;20101;-61
2022/03/09 04:37:04;;;;;;;8.25;5.32;;;1.90;99.90;;;;;;5094003;28;20079;-61
2022/03/09 04:39:29;;;;;;;9.70;5.80;;;1.90;99.90;;;;;;5093744;28;20500;-61
2022/03/09 04:41:55;;;;;;;10.80;6.50;;;1.90;99.90;;;;;;5093695;28;20028;-61
2022/03/09 04:44:20;;;;;;;9.65;5.38;;;1.80;99.90;;;;;;5108840;28;20039;-61
2022/03/09 04:46:46;;;;;;;7.57;5.57;;;1.80;99.90;;;;;;5093757;28;20032;-61
2022/03/09 04:49:11;;;;;;;11.00;5.85;;;1.80;99.90;;;;;;5093973;28;20048;-61
2022/03/09 04:51:37;;;;;;;12.05;5.60;;;1.70;99.90;;;;;;5093835;28;20043;-61
2022/03/09 04:54:03;;;;;;;9.93;5.80;;;1.70;99.90;;;;;;5093587;28;20513;-61
2022/03/09 04:56:29;;;;;;;8.15;5.65;;;1.60;99.90;;;;;;5093371;28;20394;-61
2022/03/09 04:58:55;;;;;;;16.13;5.95;;;1.60;99.90;;;;;;5093361;28;20039;-61
2022/03/09 05:01:21;;;;;;;8.60;5.50;;;1.60;99.90;;;;;;5093398;28;20071;-61
2022/03/09 05:03:46;;;;;;;9.18;5.90;;;1.50;99.90;;;;;;5093563;28;20446;-61
2022/03/09 05:06:13;;;;;;;11.30;6.25;;;1.60;99.90;;;;;;5093353;28;20410;-61
2022/03/09 05:08:39;;;;;;;10.07;6.03;;;1.60;99.90;;;;;;5093197;28;20044;-62
2022/03/09 05:11:04;;;;;;;12.18;6.10;;;1.50;99.90;;;;;;5093106;28;20435;-61
2022/03/09 05:13:30;;;;;;;7.55;5.57;;;1.50;99.90;;;;;;5093031;28;20036;-61
2022/03/09 05:15:55;;;;;;;10.23;5.65;;;1.50;99.90;;;;;;5093052;28;20039;-61
2022/03/09 05:18:21;;;;;;;11.32;5.78;;;1.50;99.90;;;;;;5093159;28;20044;-61
2022/03/09 05:20:47;;;;;;;9.23;5.80;;;1.50;99.90;;;;;;5093066;28;20122;-61
2022/03/09 05:23:13;;;;;;;9.13;6.28;;;1.50;99.90;;;;;;5093006;28;20040;-61
2022/03/09 05:25:39;;;;;;;10.00;5.78;;;1.50;99.90;;;;;;5092774;28;20036;-61
2022/03/09 05:28:04;;;;;;;10.25;5.78;;;1.50;99.90;;;;;;5092505;28;20087;-61
2022/03/09 05:30:30;;;;;;;9.25;6.25;;;1.50;99.90;;;;;;5092974;28;20044;-61
2022/03/09 05:32:57;;;;;;;12.13;5.78;;;1.40;99.90;;;;;;5093328;28;20040;-61
2022/03/09 05:35:22;;;;;;;10.20;6.03;;;1.40;99.90;;;;;;5092944;28;20828;-61
2022/03/09 05:37:48;;;;;;;8.88;6.30;;;1.50;99.90;;;;;;5092277;28;20072;-61
2022/03/09 05:40:14;;;;;;;11.07;6.30;;;1.40;99.90;;;;;;5092690;28;20375;-61
2022/03/09 05:42:41;;;;;;;10.73;6.57;;;1.40;99.90;;;;;;5092543;28;20074;-61
2022/03/09 05:45:07;;;;;;;9.35;5.93;;;1.50;99.90;;;;;;5092730;28;20140;-61
2022/03/09 05:47:33;;;;;;;11.55;6.40;;;1.40;99.90;;;;;;5092642;28;20046;-61
2022/03/09 05:49:59;;;;;;;8.73;6.30;;;1.40;99.90;;;;;;5092625;28;20036;-61
2022/03/09 05:52:24;;;;;;;10.07;6.43;;;1.40;99.90;;;;;;5092444;28;20043;-60
2022/03/09 05:54:50;;;;;;;10.40;6.07;;;1.40;99.90;;;;;;5092301;28;20089;-60
2022/03/09 05:57:20;;;;;;;9.77;6.35;;;1.40;99.90;;;;;;5091809;28;20517;-61
2022/03/09 05:59:46;;;;;;;9.98;6.55;;;1.40;99.90;;;;;;5092075;28;20124;-60
2022/03/09 06:02:12;;;;;;;9.23;6.22;;;1.40;99.90;;;;;;5092471;28;20032;-60
2022/03/09 06:04:37;;;;;;;10.30;5.88;;;1.40;99.90;;;;;;5092164;28;20039;-60
2022/03/09 06:07:03;;;;;;;9.65;5.95;;;1.40;99.90;;;;;;5090959;28;20047;-61
2022/03/09 06:09:29;;;;;;;8.93;5.93;;;1.40;99.90;;;;;;5092040;28;20123;-61
2022/03/09 06:11:55;;;;;;;10.20;6.43;;;1.40;99.90;;;;;;5092102;28;20123;-60
2022/03/09 06:14:21;;;;;;;11.80;6.35;;;1.40;99.90;;;;;;5092300;28;20093;-60
2022/03/09 06:16:47;;;;;;;15.13;6.32;;;1.40;99.90;;;;;;5092161;28;20107;-61
2022/03/09 06:19:17;;;;;;;9.27;6.15;;;1.40;99.90;;;;;;5091987;28;20505;-60
2022/03/09 06:21:43;;;;;;;11.95;6.95;;;1.40;99.90;;;;;;5092189;28;20036;-60
2022/03/09 06:24:09;;;;;;;11.18;7.05;;;1.40;99.90;;;;;;5091992;28;20036;-60
2022/03/09 06:26:36;;;;;;;12.73;6.82;;;1.40;99.90;;;;;;5092015;28;20039;-60
2022/03/09 06:29:03;;;;;;;9.93;6.72;;;1.50;99.90;;;;;;5091825;28;20127;-60
2022/03/09 06:31:29;;;;;;;11.50;7.55;;;1.50;99.90;;;;;;5092168;28;20040;-59
2022/03/09 06:33:54;;;;;;;12.80;6.45;;;1.50;99.90;;;;;;5092076;28;20089;-60
2022/03/09 06:36:20;;;;;;;10.63;6.70;;;1.50;99.90;;;;;;5091861;28;20040;-61
2022/03/09 06:38:45;;;;;;;11.82;7.35;;;1.50;99.90;;;;;;5091693;28;20044;-61
2022/03/09 06:41:12;;;;;;;9.45;6.32;;;1.60;99.90;;;;;;5092301;28;20052;-61
2022/03/09 06:43:38;;;;;;;9.88;6.00;;;1.60;99.90;;;;;;5092207;28;20040;-61
2022/03/09 06:46:04;;;;;;;11.15;7.20;;;1.70;99.90;;;;;;5092106;28;20529;-61
2022/03/09 06:48:30;;;;;;;9.43;6.18;;;1.80;99.90;;;;;;5094640;28;20505;-61
2022/03/09 06:50:56;;;;;;;9.57;6.68;;;1.90;99.90;;;;;;5095844;28;20470;-61
2022/03/09 06:53:22;;;;;;;11.40;6.38;;;1.90;99.90;;;;;;5095913;28;20032;-61
2022/03/09 06:55:47;;;;;;;8.82;6.43;;;2.00;99.90;;;;;;5094572;28;20084;-60
2022/03/09 06:58:13;;;;;;;11.23;6.72;;;2.10;99.90;;;;;;5095974;28;20036;-61
2022/03/09 07:00:39;;;;;;;12.00;6.25;;;2.20;99.90;;;;;;5095835;28;20043;-60
2022/03/09 07:03:05;;;;;;;9.75;6.63;;;2.30;99.90;;;;;;5095716;28;20032;-60
2022/03/09 07:05:34;;;;;;;11.68;6.32;;;2.40;99.90;;;;;;5094247;28;20217;-61
2022/03/09 07:08:00;;;;;;;10.60;6.32;;;2.40;99.90;;;;;;5094593;28;20478;-62
2022/03/09 07:10:26;;;;;;;11.85;6.22;;;2.50;99.90;;;;;;5095434;28;20463;-61
2022/03/09 07:12:52;;;;;;;8.75;5.90;;;2.60;99.90;;;;;;5095503;28;20040;-61
2022/03/09 07:15:17;;;;;;;14.02;6.18;;;2.60;99.90;;;;;;5095515;28;20051;-61
2022/03/09 07:17:45;;;;;;;9.30;6.30;;;2.60;99.90;;;;;;5095567;28;20031;-62
2022/03/09 07:20:12;;;;;;;10.90;6.75;;;2.70;99.90;;;;;;5095068;28;20036;-61
2022/03/09 07:22:39;;;;;;;13.50;6.80;;;2.80;99.90;;;;;;5089601;28;20487;-61
2022/03/09 07:25:05;;;;;;;9.35;6.03;;;2.90;99.90;;;;;;5074058;28;20513;-61
2022/03/09 07:27:31;;;;;;;10.77;6.30;;;3.10;99.90;;;;;;5073490;28;20090;-61
2022/03/09 07:29:57;;;;;;;9.98;6.78;;;3.20;99.90;;;;;;5074440;28;20448;-61
2022/03/09 07:32:22;;;;;;;11.70;7.03;;;3.40;99.90;;;;;;5074846;28;20029;-61
2022/03/09 07:34:48;;;;;;;13.55;6.95;;;3.60;99.90;;;;;;5074539;28;20036;-61
2022/03/09 07:37:13;;;;;;;11.55;6.35;;;3.90;99.90;;;;;;5074417;28;20076;-61
2022/03/09 07:39:39;;;;;;;12.40;7.45;;;4.10;99.90;;;;;;5074738;28;20051;-61
2022/03/09 07:42:05;;;;;;;8.15;5.78;;;4.40;99.90;;;;;;5074779;28;20044;-61
2022/03/09 07:44:31;;;;;;;12.52;6.95;;;4.60;99.90;;;;;;5074600;28;20845;-61
2022/03/09 07:46:57;;;;;;;10.10;6.45;;;4.90;99.90;;;;;;5073082;28;20093;-61
2022/03/09 07:49:22;;;;;;;10.63;6.00;;;5.20;99.90;;;;;;5074336;28;20028;-61
2022/03/09 07:51:49;;;;;;;9.10;6.28;;;5.50;99.90;;;;;;5074116;28;20089;-61
2022/03/09 07:54:16;;;;;;;11.68;6.53;;;5.70;99.90;;;;;;5074331;28;20044;-61
2022/03/09 07:56:43;;;;;;;12.27;6.32;;;6.00;99.90;;;;;;5074329;28;20098;-61
2022/03/09 07:59:11;;;;;;;10.00;6.57;;;6.30;99.90;;;;;;5072386;28;20127;-61
2022/03/09 08:01:37;;;;;;;9.38;6.47;;;6.60;99.90;;;;;;5074245;28;20094;-61
2022/03/09 08:04:03;;;;;;;11.68;7.05;;;6.80;99.90;;;;;;5074104;28;20044;-61
2022/03/09 08:06:29;;;;;;;9.48;6.32;;;6.90;99.90;;;;;;5073957;28;20036;-60
2022/03/09 08:08:55;;;;;;;10.18;5.95;;;7.10;99.90;;;;;;5073960;28;20115;-61
2022/03/09 08:11:22;;;;;;;9.50;6.13;;;7.70;99.90;;;;;;5074089;28;20506;-61
2022/03/09 08:13:48;;;;;;;9.48;7.10;;;7.90;99.90;;;;;;5073983;28;20040;-60
2022/03/09 08:16:14;;;;;;;10.00;6.47;;;8.20;99.90;;;;;;5074012;28;20045;-61
2022/03/09 08:18:39;;;;;;;9.15;6.28;;;8.30;99.90;;;;;;5073931;28;20078;-61
2022/03/09 08:21:05;;;;;;;9.20;6.15;;;8.60;99.20;;;;;;5072044;28;20135;-61
2022/03/09 08:23:31;;;;;;;13.77;6.55;;;8.50;99.60;;;;;;5073838;28;20052;-59
2022/03/09 08:25:56;;;;;;;15.35;6.45;;;8.80;97.90;;;;;;5073596;28;20044;-58
2022/03/09 08:28:22;;;;;;;9.98;6.20;;;8.90;97.80;;;;;;5073509;28;20137;-59
2022/03/09 08:30:48;;;;;;;12.23;6.68;;;8.90;96.80;;;;;;5073629;28;20123;-59
2022/03/09 08:33:14;;;;;;;7.50;5.75;;;9.30;97.60;;;;;;5073448;28;20119;-59
2022/03/09 08:35:40;;;;;;;9.07;6.47;;;9.50;95.20;;;;;;5073375;28;20455;-59
2022/03/09 08:38:06;;;;;;;10.48;6.55;;;9.80;94.50;;;;;;5073394;28;20143;-59
2022/03/09 08:40:32;;;;;;;14.73;6.07;;;10.20;91.70;;;;;;5073601;28;20044;-59
2022/03/09 08:42:58;;;;;;;8.93;7.10;;;10.30;92.40;;;;;;5073490;28;20052;-59
2022/03/09 08:45:24;;;;;;;8.48;6.57;;;10.60;87.60;;;;;;5071876;28;20098;-59
2022/03/09 08:47:49;;;;;;;8.18;5.63;;;10.80;90.10;;;;;;5073196;28;20039;-59
2022/03/09 08:50:15;;;;;;;9.93;6.22;;;10.70;85.00;;;;;;5073014;28;20082;-58
2022/03/09 08:52:41;;;;;;;10.77;5.90;;;10.90;84.20;;;;;;5073295;28;20123;-59
2022/03/09 08:55:07;;;;;;;7.35;5.80;;;11.40;81.80;;;;;;5073198;28;20040;-59
2022/03/09 08:57:33;;;;;;;8.48;6.22;;;11.60;82.20;;;;;;5073029;28;20033;-58
2022/03/09 09:00:02;;;;;;;9.48;5.72;;;11.70;84.60;;;;;;5072897;28;20360;-58
2022/03/09 09:02:28;;;;;;;10.13;6.13;;;11.80;78.70;;;;;;5072861;28;20072;-59
2022/03/09 09:04:54;;;;;;;8.93;6.60;;;12.20;78.60;;;;;;5072766;28;20079;-59
2022/03/09 09:07:20;;;;;;;8.13;5.75;;;12.00;76.10;;;;;;5072696;28;20037;-59
2022/03/09 09:09:46;;;;;;;8.60;6.00;;;11.80;74.50;;;;;;5072735;28;20568;-58
2022/03/09 09:12:11;;;;;;;8.10;5.78;;;12.00;76.80;;;;;;5071822;28;20036;-59
2022/03/09 09:14:37;;;;;;;10.88;6.43;;;12.10;76.00;;;;;;5072675;28;20044;-59
2022/03/09 09:17:03;;;;;;;9.77;6.20;;;12.00;74.10;;;;;;5072438;28;20044;-58
2022/03/09 09:19:29;;;;;;;10.82;5.68;;;11.70;76.40;;;;;;5072725;28;20076;-58
2022/03/09 09:21:55;;;;;;;9.65;5.47;;;12.30;78.30;;;;;;5087799;28;20083;-58
2022/03/09 09:24:21;;;;;;;7.25;5.47;;;12.50;73.60;;;;;;5072299;28;20051;-58
2022/03/09 09:26:47;;;;;;;11.25;6.50;;;12.70;77.30;;;;;;5072441;28;20119;-58
2022/03/09 09:29:14;;;;;;;11.65;6.35;;;12.40;73.50;;;;;;5072468;28;20466;-58
2022/03/09 09:31:41;;;;;;;13.80;6.50;;;12.90;75.00;;;;;;5072423;28;20394;-59
2022/03/09 09:34:08;;;;;;;8.60;6.10;;;12.80;74.40;;;;;;5072323;28;20119;-59
2022/03/09 09:36:34;;;;;;;10.80;6.50;;;12.60;73.20;;;;;;5072071;28;20048;-59
2022/03/09 09:39:00;;;;;;;11.02;6.10;;;12.50;73.50;;;;;;5072389;28;20109;-59
2022/03/09 09:41:27;;;;;;;9.60;7.05;;;12.50;73.70;;;;;;5072368;28;20044;-59
2022/03/09 09:43:53;;;;;;;13.30;6.00;;;12.40;73.10;;;;;;5072315;28;20044;-59
2022/03/09 09:46:20;;;;;;;11.27;6.97;;;12.20;73.40;;;;;;5072118;28;20036;-59
2022/03/09 09:48:46;;;;;;;8.93;6.03;;;12.00;74.50;;;;;;5072241;28;20036;-59
2022/03/09 09:51:12;;;;;;;11.90;7.82;;;12.20;74.90;;;;;;5072009;28;20033;-59
2022/03/09 09:53:46;;;;;;;7.90;5.97;;;11.90;72.10;;;;;;5087505;28;20044;-58
2022/03/09 09:56:15;;;;;;;8.65;6.50;;;11.70;73.00;;;;;;5071846;28;20123;-58
2022/03/09 09:58:43;;;;;;;9.10;6.72;;;11.40;73.20;;;;;;5072640;28;20040;-59
2022/03/09 10:01:10;;;;;;;11.93;6.50;;;11.30;74.60;;;;;;5070645;28;20395;-59
2022/03/09 10:03:36;;;;;;;10.48;6.93;;;11.20;76.50;;;;;;5071727;28;20496;-58
2022/03/09 10:06:02;;;;;;;10.98;6.03;;;11.40;77.00;;;;;;5071851;28;20048;-59
2022/03/09 10:08:30;;;;;;;9.63;6.30;;;11.40;76.90;;;;;;5071869;28;20040;-58
2022/03/09 10:10:59;;;;;;;9.05;6.30;;;11.60;75.90;;;;;;5085887;28;20046;-59
2022/03/09 10:13:35;;;;;;;9.18;6.97;;;11.70;76.40;;;;;;5092140;28;20398;-59
2022/03/09 10:16:12;;;;;;;10.98;6.95;;;11.70;77.90;;;;;;5091996;28;20492;-59
2022/03/09 10:18:38;;;;;;;10.40;6.30;;;11.90;74.30;;;;;;5092119;28;20123;-59
2022/03/09 10:21:10;;;;;;;8.40;6.40;;;12.00;73.00;;;;;;5092108;28;20032;-59
2022/03/09 10:24:11;;;;;;;7.88;6.50;;;12.10;73.20;;;;;;5090414;28;20044;-60
2022/03/09 10:26:40;;;;;;;10.30;6.80;;;12.30;72.70;;;;;;5092076;28;20144;-58
2022/03/09 10:29:08;;;;;;;14.50;7.05;;;12.20;72.00;;;;;;5091851;28;20127;-58
2022/03/09 10:31:39;;;;;;;7.20;6.32;;;12.40;73.80;;;;;;5092116;28;20036;-58
2022/03/09 10:34:13;;;;;;;9.98;6.18;;;12.40;73.30;;;;;;5091888;28;20545;-58
2022/03/09 10:36:58;;;;;;;11.57;6.78;;;12.60;73.60;;;;;;5092120;28;20043;-58
2022/03/09 10:39:30;;;;;;;10.70;6.70;;;12.90;74.80;;;;;;5091897;28;20051;-58
2022/03/09 10:41:58;;;;;;;10.23;5.95;;;12.80;72.70;;;;;;5091991;28;20036;-58
2022/03/09 10:44:42;;;;;;;9.00;6.57;;;12.60;71.30;;;;;;5091722;28;20574;-57
2022/03/09 10:47:08;;;;;;;7.93;6.00;;;12.90;72.50;;;;;;5091821;28;20072;-57
2022/03/09 10:49:34;;;;;;;9.05;6.60;;;12.80;71.10;;;;;;5091730;28;20036;-59
2022/03/09 10:52:00;;;;;;;9.35;6.78;;;13.00;72.70;;;;;;5083136;28;20033;-59
2022/03/09 10:54:28;;;;;;;8.32;6.60;;;13.10;74.20;;;;;;5089085;28;20043;-58
2022/03/09 10:57:10;;;;;;;14.20;5.93;;;12.90;72.70;;;;;;5090725;28;20040;-59
2022/03/09 10:59:52;;;;;;;10.70;6.97;;;12.80;72.40;;;;;;5090651;28;20039;-58
2022/03/09 11:02:20;;;;;;;8.50;6.10;;;12.90;71.10;;;;;;5091424;28;20089;-58
2022/03/09 11:05:09;;;;;;;7.57;5.85;;;12.90;71.60;;;;;;5091709;28;20052;-59
2022/03/09 11:07:38;;;;;;;8.38;6.38;;;13.10;71.60;;;;;;5091501;28;20036;-59
2022/03/09 11:10:08;;;;;;;15.82;6.20;;;13.00;69.50;;;;;;5092029;28;20044;-60
2022/03/09 11:12:36;;;;;;;10.40;6.28;;;12.90;69.10;;;;;;5092046;28;20385;-59
2022/03/09 11:15:02;;;;;;;12.73;7.45;;;12.80;70.50;;;;;;5091200;28;20181;-59
2022/03/09 11:17:28;;;;;;;8.70;6.97;;;13.10;72.00;;;;;;5091402;28;20512;-59
2022/03/09 11:19:54;;;;;;;10.25;6.50;;;13.20;68.70;;;;;;5091135;28;20371;-59
2022/03/09 11:22:20;;;;;;;10.80;7.15;;;13.10;67.80;;;;;;5091234;28;20043;-59
2022/03/09 11:24:46;;;;;;;11.27;6.53;;;13.40;66.80;;;;;;5089681;28;20055;-59
2022/03/09 11:27:13;;;;;;;7.93;6.40;;;13.60;67.10;;;;;;5091355;28;20036;-59
2022/03/09 11:29:40;;;;;;;9.82;6.75;;;13.60;66.50;;;;;;5089755;28;20048;-59
2022/03/09 11:32:08;;;;;;;10.48;6.57;;;13.80;68.40;;;;;;5091286;28;20089;-59
2022/03/09 11:34:37;;;;;;;8.52;6.28;;;14.00;66.70;;;;;;5092142;28;20032;-59
2022/03/09 11:37:16;;;;;;;10.57;6.55;;;14.30;67.30;;;;;;5094845;28;20098;-59
2022/03/09 11:40:06;;;;;;;10.43;6.85;;;14.20;66.40;;;;;;5095026;28;20036;-59
2022/03/09 11:42:34;;;;;;;10.47;6.63;;;14.50;65.80;;;;;;5094849;28;20651;-59
2022/03/09 11:45:15;;;;;;;8.75;6.78;;;14.30;66.00;;;;;;5094807;28;20298;-59
2022/03/09 11:47:57;;;;;;;8.15;6.60;;;14.60;67.60;;;;;;5093109;28;20051;-59
2022/03/09 11:50:23;;;;;;;10.65;7.80;;;14.80;67.30;;;;;;5094541;28;20522;-59
2022/03/09 11:53:00;;;;;;;8.70;6.82;;;14.90;67.30;;;;;;5094739;28;20028;-59
2022/03/09 11:55:26;;;;;;;8.55;6.72;;;14.80;66.10;;;;;;5094429;28;20040;-59
2022/03/09 11:57:52;;;;;;;10.23;7.18;;;14.90;67.80;;;;;;5094383;28;20044;-59
2022/03/09 12:00:21;;;;;;;11.40;7.32;;;14.80;66.70;;;;;;5094483;28;20055;-59
2022/03/09 12:02:54;;;;;;;9.13;6.95;;;14.80;66.50;;;;;;5092842;28;20052;-59
2022/03/09 12:05:29;;;;;;;9.20;7.32;;;14.80;65.60;;;;;;5094289;28;20051;-59
2022/03/09 12:08:03;;;;;;;8.23;6.22;;;14.70;66.80;;;;;;5094132;28;20036;-59
2022/03/09 12:10:55;;;;;;;11.57;7.00;;;14.90;68.00;;;;;;5094299;28;20040;-59
2022/03/09 12:13:21;;;;;;;8.80;6.90;;;14.90;66.60;;;;;;5094430;28;20093;-59
2022/03/09 12:16:12;;;;;;;11.15;6.93;;;15.10;67.20;;;;;;5094535;28;20449;-59
2022/03/09 12:19:07;;;;;;;9.18;7.50;;;15.10;66.70;;;;;;5093968;28;20043;-59
2022/03/09 12:21:37;;;;;;;11.48;7.25;;;15.10;66.20;;;;;;5031615;28;20081;-59
2022/03/09 12:24:06;;;;;;;12.57;8.05;;;15.30;66.10;;;;;;5031595;28;20042;-59
2022/03/09 12:26:48;;;;;;;10.50;7.57;;;15.20;65.30;;;;;;5031526;28;20064;-59
2022/03/09 12:29:23;;;;;;;11.95;6.90;;;15.20;64.50;;;;;;5031369;28;20057;-59
2022/03/09 12:32:02;;;;;;;10.00;7.28;;;15.50;63.80;;;;;;5031410;28;20068;-59
2022/03/09 12:34:30;;;;;;;10.25;7.85;;;15.70;64.50;;;;;;5014538;28;20538;-59
2022/03/09 12:36:57;;;;;;;11.77;7.18;;;15.50;63.40;;;;;;5031482;28;20077;-59
2022/03/09 12:39:23;;;;;;;11.30;6.50;;;15.60;64.00;;;;;;5031206;28;20052;-59
2022/03/09 12:41:53;;;;;;;9.07;6.97;;;15.60;64.60;;;;;;5031404;28;20041;-59
2022/03/09 12:44:22;;;;;;;8.80;6.75;;;15.70;64.00;;;;;;5031667;28;20046;-59
2022/03/09 12:46:49;;;;;;;8.18;6.85;;;15.70;64.10;;;;;;5030938;28;20046;-59
2022/03/09 12:49:16;;;;;;;8.23;7.05;;;15.70;63.00;;;;;;5031144;28;20441;-59
2022/03/09 12:51:53;;;;;;;8.70;6.97;;;15.60;64.30;;;;;;5031102;28;20403;-58
2022/03/09 12:54:34;;;;;;;8.23;6.32;;;15.50;62.90;;;;;;5030991;28;20033;-59